Time;durP1;ratioP1;P1;durP2;ratioP2;P2;SDS_P1;SDS_P2;PMS_P1;PMS_P2;Temp;Humidity;BMP_temperature;BMP_pressure;BME280_temperature;BME280_humidity;BME280_pressure;Samples;Min_cycle;Max_cycle;Signal;HPM_P1;HPM_P2
2022/03/18 00:00:21;;;;;;;10.80;6.57;;;;;;;-1.15;69.03;97451.61;1713930;83;21076;-69
2022/03/18 00:02:49;;;;;;;17.73;10.87;;;;;;;-1.19;69.65;97452.64;1678129;84;21061;-69
2022/03/18 00:05:17;;;;;;;14.80;7.73;;;;;;;-1.31;69.75;97447.68;1708082;84;21507;-69
2022/03/18 00:07:45;;;;;;;17.80;8.43;;;;;;;-1.30;70.20;97457.22;1708049;84;21037;-69
2022/03/18 00:10:13;;;;;;;10.07;6.57;;;;;;;-1.37;69.48;97456.37;1707934;84;21572;-69
2022/03/18 00:12:41;;;;;;;16.57;8.50;;;;;;;-1.38;69.94;97454.19;1707845;84;21077;-69
2022/03/18 00:15:10;;;;;;;11.37;7.03;;;;;;;-1.34;70.47;97456.13;1708169;84;21037;-69
2022/03/18 00:17:38;;;;;;;14.73;7.97;;;;;;;-1.34;70.04;97460.02;1707897;84;21519;-69
2022/03/18 00:20:08;;;;;;;12.50;7.03;;;;;;;-1.39;70.21;97462.75;1708078;84;20996;-69
2022/03/18 00:22:36;;;;;;;14.33;7.63;;;;;;;-1.38;69.76;97461.96;1708120;84;21021;-69
2022/03/18 00:25:04;;;;;;;13.33;7.57;;;;;;;-1.49;69.56;97464.73;1708068;84;21052;-68
2022/03/18 00:27:31;;;;;;;15.80;7.80;;;;;;;-1.54;69.67;97461.86;1708034;84;21507;-69
2022/03/18 00:29:58;;;;;;;14.93;7.63;;;;;;;-1.63;69.82;97466.53;1708232;84;21033;-69
2022/03/18 00:32:26;;;;;;;12.63;6.83;;;;;;;-1.63;70.32;97467.42;1707910;84;21029;-71
2022/03/18 00:34:53;;;;;;;8.77;5.83;;;;;;;-1.75;69.89;97468.88;1707963;84;21064;-69
2022/03/18 00:37:19;;;;;;;20.27;11.23;;;;;;;-1.77;70.19;97467.00;1708109;84;21017;-69
2022/03/18 00:39:46;;;;;;;11.97;7.00;;;;;;;-1.92;70.82;97469.98;1707967;84;20985;-69
2022/03/18 00:42:13;;;;;;;14.87;7.70;;;;;;;-1.90;71.00;97463.20;1708052;84;21096;-69
2022/03/18 00:44:40;;;;;;;11.17;6.53;;;;;;;-1.82;70.83;97463.25;1708133;84;21048;-69
2022/03/18 00:52:03;;;;;;;17.70;9.83;;;;;;;-1.85;70.59;97469.55;1701658;84;21020;-68
2022/03/18 00:52:21;;;;;;;12.43;7.63;;;;;;;-2.03;70.71;97471.93;1707803;84;21041;-68
2022/03/18 00:54:49;;;;;;;14.30;8.10;;;;;;;-2.11;70.51;97463.71;1708145;84;20997;-68
2022/03/18 00:57:16;;;;;;;12.70;7.20;;;;;;;-2.09;71.03;97467.66;1708070;84;21526;-68
2022/03/18 00:59:42;;;;;;;12.00;6.43;;;;;;;-2.15;70.97;97467.31;1708057;84;21001;-68
2022/03/18 01:02:09;;;;;;;14.30;7.50;;;;;;;-2.27;70.67;97469.66;1707947;84;21545;-69
2022/03/18 01:04:36;;;;;;;17.57;8.63;;;;;;;-2.40;70.98;97473.56;1707975;84;21012;-68
2022/03/18 01:07:03;;;;;;;12.43;7.53;;;;;;;-2.43;71.15;97477.27;1707993;84;21052;-69
2022/03/18 01:09:29;;;;;;;15.30;7.77;;;;;;;-2.41;71.11;97476.55;1708064;84;21431;-68
2022/03/18 01:11:56;;;;;;;14.90;8.50;;;;;;;-2.51;70.76;97480.67;1708045;84;21049;-68
2022/03/18 01:14:23;;;;;;;13.93;8.03;;;;;;;-2.48;71.19;97476.97;1707891;84;21027;-68
2022/03/18 01:16:50;;;;;;;11.97;6.93;;;;;;;-2.51;70.96;97475.91;1707975;84;21037;-68
2022/03/18 01:19:18;;;;;;;11.90;8.20;;;;;;;-2.52;70.97;97480.19;1707854;84;21005;-68
2022/03/18 01:21:44;;;;;;;14.20;7.77;;;;;;;-2.56;71.60;97481.19;1707866;84;21025;-68
2022/03/18 01:24:11;;;;;;;12.47;6.33;;;;;;;-2.54;71.37;97486.95;1708042;84;21032;-68
2022/03/18 01:26:38;;;;;;;16.27;8.83;;;;;;;-2.62;70.91;97486.88;1707976;84;21085;-68
2022/03/18 01:29:05;;;;;;;12.87;6.47;;;;;;;-2.72;71.09;97483.19;1707896;84;21013;-68
2022/03/18 01:31:31;;;;;;;15.97;7.17;;;;;;;-2.72;71.41;97478.02;1707992;84;20989;-68
2022/03/18 01:33:58;;;;;;;14.77;8.20;;;;;;;-2.83;71.24;97474.77;1707856;84;21033;-68
2022/03/18 01:36:25;;;;;;;13.10;7.07;;;;;;;-2.83;71.55;97474.77;1707799;84;21487;-68
2022/03/18 01:38:51;;;;;;;14.17;8.73;;;;;;;-2.84;71.48;97479.05;1708108;84;21017;-68
2022/03/18 01:41:18;;;;;;;13.40;8.13;;;;;;;-2.99;72.38;97487.53;1707716;84;21077;-68
2022/03/18 01:43:47;;;;;;;13.53;7.03;;;;;;;-3.03;72.76;97484.25;1708019;84;21498;-68
2022/03/18 01:46:17;;;;;;;17.30;8.27;;;;;;;-2.99;72.38;97492.30;1707954;84;21033;-68
2022/03/18 01:48:45;;;;;;;13.60;7.70;;;;;;;-2.97;72.23;97494.95;1707837;84;21060;-68
2022/03/18 01:51:16;;;;;;;15.97;8.77;;;;;;;-2.90;72.34;97498.42;1707977;84;21036;-68
2022/03/18 01:53:45;;;;;;;13.03;6.93;;;;;;;-2.94;71.86;97492.59;1708010;84;21031;-68
2022/03/18 01:56:12;;;;;;;14.00;7.87;;;;;;;-2.99;71.53;97502.63;1707854;84;21036;-68
2022/03/18 01:58:39;;;;;;;9.63;5.73;;;;;;;-3.02;71.93;97499.85;1689819;84;21053;-68
2022/03/18 02:01:07;;;;;;;13.50;8.00;;;;;;;-3.15;72.40;97503.34;1711108;84;21083;-68
2022/03/18 02:03:34;;;;;;;10.00;5.40;;;;;;;-3.14;71.97;97504.22;1715882;84;21555;-68
2022/03/18 02:06:01;;;;;;;13.00;7.80;;;;;;;-3.23;71.77;97501.92;1716434;84;21040;-68
2022/03/18 02:08:29;;;;;;;13.07;7.27;;;;;;;-3.26;71.83;97512.94;1716351;83;21028;-68
2022/03/18 02:10:56;;;;;;;15.13;7.40;;;;;;;-3.31;72.58;97514.73;1716292;83;21048;-69
2022/03/18 02:13:23;;;;;;;12.77;7.00;;;;;;;-3.39;72.82;97515.92;1716420;84;21499;-68
2022/03/18 02:15:49;;;;;;;12.40;7.90;;;;;;;-3.36;72.54;97516.12;1716354;83;20973;-68
2022/03/18 02:18:16;;;;;;;12.77;7.67;;;;;;;-3.43;72.93;97526.83;1716168;83;21048;-69
2022/03/18 02:20:42;;;;;;;12.87;7.43;;;;;;;-3.48;72.53;97520.06;1716331;83;21028;-68
2022/03/18 02:23:09;;;;;;;9.43;5.47;;;;;;;-3.39;72.99;97520.69;1716395;84;21012;-69
2022/03/18 02:25:36;;;;;;;11.20;7.17;;;;;;;-3.43;72.38;97519.97;1716267;84;21038;-68
2022/03/18 02:28:04;;;;;;;11.63;6.83;;;;;;;-3.49;72.34;97523.05;1716364;83;21013;-68
2022/03/18 02:30:34;;;;;;;14.37;7.50;;;;;;;-3.51;72.10;97516.00;1716270;83;21080;-68
2022/03/18 02:33:01;;;;;;;12.73;6.93;;;;;;;-3.48;72.45;97523.94;1716473;84;21001;-68
2022/03/18 02:35:29;;;;;;;9.77;6.63;;;;;;;-3.42;72.69;97520.89;1716227;84;21033;-68
2022/03/18 02:37:57;;;;;;;11.40;7.07;;;;;;;-3.30;72.79;97524.25;1716018;84;21096;-68
2022/03/18 02:40:28;;;;;;;13.50;6.47;;;;;;;-3.26;71.89;97529.72;1716374;83;21048;-68
2022/03/18 02:42:58;;;;;;;9.23;5.03;;;;;;;-3.27;71.37;97529.23;1716323;83;21503;-69
2022/03/18 02:45:24;;;;;;;11.23;6.37;;;;;;;-3.37;71.13;97533.70;1716115;84;21065;-68
2022/03/18 02:47:51;;;;;;;12.17;6.87;;;;;;;-3.47;71.24;97534.78;1716362;83;21044;-68
2022/03/18 02:50:17;;;;;;;12.77;6.70;;;;;;;-3.47;71.74;97539.05;1716175;84;21068;-68
2022/03/18 02:52:44;;;;;;;9.27;5.10;;;;;;;-3.38;71.92;97539.23;1716396;83;21004;-68
2022/03/18 02:55:11;;;;;;;10.43;6.47;;;;;;;-3.41;71.11;97541.62;1716427;83;21499;-68
2022/03/18 02:57:39;;;;;;;11.70;6.97;;;;;;;-3.61;71.10;97553.59;1716436;84;21044;-68
2022/03/18 03:00:08;;;;;;;12.93;6.77;;;;;;;-3.67;71.53;97555.37;1716136;84;21015;-68
2022/03/18 03:02:34;;;;;;;11.73;6.53;;;;;;;-3.71;71.58;97559.81;1709008;83;21570;-68
2022/03/18 03:08:01;;;;;;;12.13;6.70;;;;;;;-3.60;71.78;97560.16;1708019;84;21479;-68
2022/03/18 03:10:30;;;;;;;10.63;7.00;;;;;;;-3.59;71.50;97572.25;1708130;84;21057;-68
2022/03/18 03:13:06;;;;;;;10.20;6.63;;;;;;;-3.50;71.73;97565.14;1706996;84;21077;-67
2022/03/18 03:15:33;;;;;;;11.57;6.13;;;;;;;-3.47;71.39;97560.58;1708051;84;20998;-68
2022/03/18 03:18:00;;;;;;;9.10;5.63;;;;;;;-3.51;71.19;97565.03;1707998;84;21005;-68
2022/03/18 03:20:27;;;;;;;11.53;6.33;;;;;;;-3.73;72.54;97560.09;1707787;84;21068;-68
2022/03/18 03:22:53;;;;;;;10.07;5.37;;;;;;;-3.78;71.90;97558.89;1708026;84;21017;-68
2022/03/18 03:25:20;;;;;;;11.83;6.00;;;;;;;-3.86;71.79;97562.64;1707996;84;21076;-68
2022/03/18 03:27:52;;;;;;;10.60;6.37;;;;;;;-3.95;71.82;97571.55;1707894;84;20981;-68
2022/03/18 03:30:20;;;;;;;9.03;5.80;;;;;;;-3.84;72.38;97561.06;1707943;84;21068;-68
2022/03/18 03:32:47;;;;;;;12.47;6.40;;;;;;;-3.82;71.72;97564.66;1707944;84;20981;-68
2022/03/18 03:35:15;;;;;;;8.33;5.77;;;;;;;-3.78;71.91;97573.08;1707878;84;21029;-68
2022/03/18 03:37:43;;;;;;;12.07;6.43;;;;;;;-3.79;71.43;97580.33;1708222;84;21484;-68
2022/03/18 03:40:15;;;;;;;12.37;6.87;;;;;;;-3.85;71.38;97581.22;1708127;84;21024;-68
2022/03/18 03:42:45;;;;;;;13.40;7.33;;;;;;;-3.89;71.63;97583.96;1690535;84;20993;-68
2022/03/18 03:45:13;;;;;;;11.87;5.63;;;;;;;-3.89;71.72;97592.98;1708181;84;21045;-68
2022/03/18 03:47:41;;;;;;;10.17;5.23;;;;;;;-3.99;72.00;97596.61;1690185;84;21069;-68
2022/03/18 03:50:10;;;;;;;13.83;6.67;;;;;;;-4.11;71.91;97597.44;1707896;84;21016;-68
2022/03/18 03:52:37;;;;;;;9.07;4.77;;;;;;;-4.11;72.26;97601.31;1708069;84;21005;-68
2022/03/18 03:55:08;;;;;;;15.37;7.37;;;;;;;-4.16;72.46;97595.45;1707858;84;21752;-68
2022/03/18 03:57:34;;;;;;;16.37;7.87;;;;;;;-4.22;72.57;97604.43;1708170;84;21052;-68
2022/03/18 04:00:02;;;;;;;12.40;6.87;;;;;;;-4.22;72.49;97608.30;1708123;84;21025;-68
2022/03/18 04:02:31;;;;;;;11.20;6.27;;;;;;;-4.25;72.77;97613.24;1714205;84;21065;-68
2022/03/18 04:04:58;;;;;;;10.50;6.27;;;;;;;-4.30;73.21;97619.36;1716431;83;21040;-68
2022/03/18 04:07:26;;;;;;;10.57;5.17;;;;;;;-4.32;72.87;97610.61;1716535;83;21067;-68
2022/03/18 04:09:54;;;;;;;12.10;5.97;;;;;;;-4.29;72.87;97620.24;1692133;84;21059;-68
2022/03/18 04:12:21;;;;;;;25.83;11.67;;;;;;;-4.36;74.93;97620.19;1716450;83;21061;-68
2022/03/18 04:14:51;;;;;;;16.77;8.83;;;;;;;-4.30;74.62;97620.64;1716457;84;21474;-68
2022/03/18 04:17:17;;;;;;;9.20;6.53;;;;;;;-4.20;74.41;97617.04;1716370;84;21009;-68
2022/03/18 04:19:44;;;;;;;9.90;6.27;;;;;;;-4.09;73.97;97616.09;1716328;84;20981;-67
2022/03/18 04:22:11;;;;;;;13.50;6.90;;;;;;;-4.04;73.58;97619.89;1716524;84;21032;-66
2022/03/18 04:24:37;;;;;;;13.60;7.00;;;;;;;-3.99;73.63;97621.10;1716474;83;21072;-66
2022/03/18 04:27:04;;;;;;;14.17;7.13;;;;;;;-3.90;73.45;97625.13;1716521;83;21541;-67
2022/03/18 04:29:31;;;;;;;11.60;6.50;;;;;;;-3.88;73.35;97630.90;1716380;83;21464;-68
2022/03/18 04:31:58;;;;;;;12.77;6.43;;;;;;;-3.76;73.59;97623.98;1716505;84;21020;-67
2022/03/18 04:34:25;;;;;;;11.70;6.17;;;;;;;-3.71;72.90;97629.46;1716212;84;21056;-67
2022/03/18 04:36:52;;;;;;;10.57;6.37;;;;;;;-3.84;72.64;97629.02;1716329;84;21073;-68
2022/03/18 04:39:18;;;;;;;13.83;7.40;;;;;;;-3.92;73.33;97632.75;1716566;83;21012;-68
2022/03/18 04:41:45;;;;;;;10.80;6.27;;;;;;;-3.94;73.36;97637.79;1716411;83;21021;-68
2022/03/18 04:44:12;;;;;;;8.77;5.40;;;;;;;-3.94;73.11;97651.97;1716431;83;21067;-68
2022/03/18 04:46:38;;;;;;;11.20;4.70;;;;;;;-3.89;73.29;97648.44;1716381;83;21004;-68
2022/03/18 04:49:05;;;;;;;10.70;6.10;;;;;;;-3.97;73.22;97649.19;1716538;83;21479;-68
2022/03/18 04:51:32;;;;;;;12.23;6.57;;;;;;;-3.94;73.38;97648.50;1716302;83;21518;-68
2022/03/18 04:53:59;;;;;;;11.67;6.80;;;;;;;-3.91;73.64;97650.00;1716524;84;21036;-68
2022/03/18 04:59:10;;;;;;;24.60;12.90;;;;;;;-4.01;73.23;97660.06;1716500;83;20996;-68
2022/03/18 05:01:37;;;;;;;11.83;6.80;;;;;;;-3.96;73.99;97661.67;1716124;83;21124;-68
2022/03/18 05:04:04;;;;;;;42.63;19.83;;;;;;;-3.96;73.90;97670.30;1716353;84;21080;-68
2022/03/18 05:06:31;;;;;;;11.00;6.33;;;;;;;-3.86;73.77;97674.43;1716346;83;21534;-68
2022/03/18 05:08:58;;;;;;;21.90;10.70;;;;;;;-3.67;73.71;97672.75;1716605;83;21060;-68
2022/03/18 05:11:25;;;;;;;8.33;5.30;;;;;;;-3.49;73.36;97678.28;1716491;83;21551;-68
2022/03/18 05:13:52;;;;;;;28.97;14.97;;;;;;;-3.40;72.98;97671.19;1716369;83;20965;-68
2022/03/18 05:16:19;;;;;;;13.80;8.37;;;;;;;-3.30;72.69;97671.39;1716490;84;21539;-68
2022/03/18 05:18:45;;;;;;;46.23;23.77;;;;;;;-3.14;72.67;97679.39;1716439;83;21004;-68
2022/03/18 05:21:12;;;;;;;31.80;16.67;;;;;;;-3.02;73.20;97683.21;1716323;84;21043;-68
2022/03/18 05:23:38;;;;;;;32.87;17.23;;;;;;;-2.88;74.37;97684.12;1716530;83;20957;-77
2022/03/18 05:26:05;;;;;;;27.70;16.40;;;;;;;-2.81;73.99;97689.30;1716379;83;21048;-68
2022/03/18 05:28:32;;;;;;;32.43;19.43;;;;;;;-2.75;74.78;97690.59;1716172;83;21124;-68
2022/03/18 05:30:59;;;;;;;42.33;23.97;;;;;;;-2.70;74.16;97689.61;1716159;83;21028;-68
2022/03/18 05:33:26;;;;;;;45.83;22.47;;;;;;;-2.76;73.65;97690.10;1716519;83;21000;-68
2022/03/18 05:35:52;;;;;;;62.40;30.93;;;;;;;-2.72;74.23;97702.44;1716255;84;21012;-68
2022/03/18 05:38:19;;;;;;;14.30;8.17;;;;;;;-2.66;72.44;97700.25;1716671;83;21013;-68
2022/03/18 05:40:46;;;;;;;11.37;5.97;;;;;;;-2.46;72.49;97699.37;1716303;84;21016;-68
2022/03/18 05:43:13;;;;;;;10.20;5.43;;;;;;;-2.31;71.80;97697.78;1716490;84;20992;-68
2022/03/18 05:45:40;;;;;;;12.90;5.20;;;;;;;-2.14;71.21;97709.23;1716448;83;21520;-68
2022/03/18 05:48:07;;;;;;;12.20;6.73;;;;;;;-2.05;68.98;97697.27;1716320;83;20981;-68
2022/03/18 05:50:34;;;;;;;37.73;17.67;;;;;;;-1.90;65.16;97699.53;1716344;83;21059;-68
2022/03/18 05:53:01;;;;;;;28.03;15.83;;;;;;;-1.80;68.82;97702.30;1716410;83;21020;-68
2022/03/18 05:56:52;;;;;;;35.27;16.83;;;;;;;-1.65;69.65;97707.55;1716381;83;21032;-68
2022/03/18 05:57:57;;;;;;;98.17;46.67;;;;;;;-1.54;69.32;97704.83;1713742;84;21053;-68
2022/03/18 06:00:24;;;;;;;56.27;30.03;;;;;;;-1.43;68.29;97713.66;1715712;83;21550;-69
2022/03/18 06:02:53;;;;;;;75.87;36.17;;;;;;;-1.34;69.14;97710.31;1709642;84;21025;-68
2022/03/18 06:05:20;;;;;;;75.03;36.93;;;;;;;-1.16;69.08;97714.42;1707247;84;21036;-71
2022/03/18 06:07:46;;;;;;;54.83;24.00;;;;;;;-0.96;68.99;97716.55;1706488;84;21538;-71
2022/03/18 06:12:58;;;;;;;16.37;9.20;;;;;;;-0.82;63.18;97716.06;1706478;84;21578;-72
2022/03/18 06:15:25;;;;;;;17.87;9.77;;;;;;;-0.81;60.39;97715.66;1707298;84;21013;-75
2022/03/18 06:17:51;;;;;;;14.97;10.07;;;;;;;-0.87;58.34;97722.27;1706738;84;21389;-73
2022/03/18 06:20:18;;;;;;;15.13;7.97;;;;;;;-0.89;59.68;97724.27;1706308;84;21068;-76
2022/03/18 06:22:44;;;;;;;429.03;178.73;;;;;;;-0.93;59.14;97722.31;1698096;84;21457;-73
2022/03/18 06:25:11;;;;;;;22.90;12.33;;;;;;;-0.93;58.51;97724.50;1694579;84;21028;-73
2022/03/18 06:27:38;;;;;;;33.90;20.80;;;;;;;-1.00;56.64;97725.34;1702890;83;21428;-74
2022/03/18 06:30:06;;;;;;;12.23;6.20;;;;;;;-0.94;57.39;97726.58;1695150;85;21042;-71
2022/03/18 06:32:32;;;;;;;15.87;9.23;;;;;;;-0.88;56.83;97731.26;1695449;84;20999;-71
2022/03/18 06:34:59;;;;;;;17.30;7.47;;;;;;;-0.86;56.80;97724.44;1694994;84;20995;-73
2022/03/18 06:37:26;;;;;;;9.43;5.73;;;;;;;-0.71;56.98;97731.83;1695284;85;21011;-71
2022/03/18 06:39:52;;;;;;;7.43;5.57;;;;;;;-0.52;58.57;97728.64;1695384;84;21083;-72
2022/03/18 06:42:19;;;;;;;10.67;6.20;;;;;;;-0.37;55.42;97727.34;1689487;83;21400;-72
2022/03/18 06:44:45;;;;;;;14.23;7.53;;;;;;;-0.24;56.96;97727.23;1691352;85;21063;-72
2022/03/18 06:47:12;;;;;;;9.63;5.53;;;;;;;-0.07;57.01;97735.98;1693113;84;21049;-70
2022/03/18 06:49:39;;;;;;;8.97;6.20;;;;;;;0.03;56.13;97732.63;1694227;84;21046;-70
2022/03/18 06:52:06;;;;;;;9.83;7.37;;;;;;;-0.01;56.13;97733.72;1694476;84;21405;-72
2022/03/18 06:54:33;;;;;;;8.97;5.60;;;;;;;-0.09;55.53;97731.52;1693993;84;21077;-78
2022/03/18 06:56:59;;;;;;;8.00;5.10;;;;;;;-0.06;56.46;97744.25;1693290;85;21071;-72
2022/03/18 06:59:26;;;;;;;9.00;5.77;;;;;;;-0.10;54.57;97738.79;1694836;84;21031;-71
2022/03/18 07:01:54;;;;;;;11.40;5.80;;;;;;;-0.32;53.64;97745.36;1694502;84;21523;-75
2022/03/18 07:04:20;;;;;;;13.60;6.43;;;;;;;-0.32;54.24;97746.66;1666881;86;21066;-71
2022/03/18 07:06:47;;;;;;;11.70;6.63;;;;;;;-0.28;54.15;97744.75;1667106;86;21046;-73
2022/03/18 07:09:14;;;;;;;16.33;7.63;;;;;;;-0.14;54.74;97742.92;1665911;85;21133;-70
2022/03/18 07:11:41;;;;;;;21.37;13.57;;;;;;;0.01;54.30;97750.69;1666452;85;21556;-69
2022/03/18 07:14:08;;;;;;;11.67;7.50;;;;;;;0.16;54.48;97746.36;1666992;86;21508;-68
2022/03/18 07:19:19;;;;;;;64.47;40.63;;;;;;;0.33;53.62;97743.83;1665997;85;21002;-68
2022/03/18 07:21:46;;;;;;;143.37;90.83;;;;;;;0.43;55.45;97757.81;1678238;85;21087;-68
2022/03/18 07:24:13;;;;;;;60.33;34.00;;;;;;;0.66;54.61;97755.58;1666173;86;21084;-68
2022/03/18 07:26:39;;;;;;;78.37;42.83;;;;;;;0.86;52.99;97743.25;1665649;86;21091;-68
2022/03/18 07:29:06;;;;;;;194.07;98.33;;;;;;;0.98;52.89;97750.79;1678273;85;21043;-70
2022/03/18 07:31:33;;;;;;;207.43;117.20;;;;;;;0.95;52.17;97757.12;1666687;86;21528;-70
2022/03/18 07:33:59;;;;;;;87.77;53.33;;;;;;;0.89;51.72;97756.81;1677991;85;21050;-69
2022/03/18 07:36:26;;;;;;;34.20;20.03;;;;;;;1.05;52.88;97748.59;1666443;86;21140;-68
2022/03/18 07:38:52;;;;;;;55.83;36.27;;;;;;;1.23;52.26;97747.36;1666639;86;21580;-69
2022/03/18 07:41:19;;;;;;;21.40;15.03;;;;;;;1.30;51.69;97755.97;1666481;86;21145;-68
2022/03/18 07:43:46;;;;;;;18.10;9.23;;;;;;;1.60;51.68;97757.48;1678686;85;21493;-68
2022/03/18 07:46:12;;;;;;;11.33;5.97;;;;;;;1.81;51.59;97758.55;1666621;86;21931;-69
2022/03/18 07:48:42;;;;;;;11.37;6.87;;;;;;;1.68;49.57;97753.55;1667082;86;21049;-69
2022/03/18 07:51:08;;;;;;;17.27;11.77;;;;;;;1.75;50.38;97759.97;1666744;85;21086;-67
2022/03/18 07:53:35;;;;;;;13.93;9.97;;;;;;;1.77;50.67;97757.92;1679103;85;21046;-70
2022/03/18 07:56:02;;;;;;;11.73;7.13;;;;;;;1.79;51.17;97763.19;1666493;86;21074;-70
2022/03/18 07:58:28;;;;;;;15.90;8.40;;;;;;;1.82;51.89;97762.06;1667146;86;21543;-69
2022/03/18 08:00:55;;;;;;;16.57;8.93;;;;;;;1.85;50.76;97767.00;1666885;86;21133;-69
2022/03/18 08:03:22;;;;;;;10.87;6.60;;;;;;;1.84;50.09;97774.34;1666731;85;21500;-68
2022/03/18 08:05:49;;;;;;;21.10;13.67;;;;;;;1.85;50.22;97770.91;1666874;85;21090;-70
2022/03/18 08:08:15;;;;;;;54.73;43.17;;;;;;;1.90;49.68;97776.35;1683196;85;21110;-72
2022/03/18 08:10:42;;;;;;;28.63;22.10;;;;;;;1.97;50.75;97776.26;1667040;86;21074;-68
2022/03/18 08:13:08;;;;;;;21.93;15.67;;;;;;;2.07;50.10;97785.89;1682912;84;21569;-72
2022/03/18 08:15:35;;;;;;;21.87;12.27;;;;;;;2.33;51.15;97788.47;1655278;87;20999;-70
2022/03/18 08:18:02;;;;;;;14.83;9.80;;;;;;;2.44;48.96;97781.57;1667191;86;21104;-70
2022/03/18 08:20:29;;;;;;;13.90;8.20;;;;;;;2.65;50.65;97782.61;1667131;86;21046;-70
2022/03/18 08:22:56;;;;;;;13.00;8.50;;;;;;;2.84;49.91;97781.73;1667119;86;21496;-69
2022/03/18 08:25:22;;;;;;;15.73;11.57;;;;;;;2.97;49.33;97777.59;1665745;85;21132;-77
2022/03/18 08:27:49;;;;;;;13.57;9.20;;;;;;;3.09;48.72;97786.78;1666747;86;21089;-72
2022/03/18 08:30:17;;;;;;;14.70;9.10;;;;;;;3.14;49.62;97785.28;1666553;86;21485;-71
2022/03/18 08:32:44;;;;;;;17.20;7.30;;;;;;;3.29;49.18;97783.36;1667562;86;21073;-72
2022/03/18 08:35:10;;;;;;;11.90;7.10;;;;;;;3.32;47.71;97787.41;1667374;85;21503;-70
2022/03/18 08:40:28;;;;;;;13.17;9.20;;;;;;;3.11;46.42;97787.76;1667726;85;21010;-70
2022/03/18 08:42:59;;;;;;;16.80;10.10;;;;;;;3.20;49.09;97792.98;1667319;85;21070;-71
2022/03/18 08:45:27;;;;;;;14.43;8.67;;;;;;;3.35;49.69;97787.95;1667617;86;21074;-71
2022/03/18 08:47:54;;;;;;;12.17;8.50;;;;;;;3.34;49.46;97789.67;1667539;85;21053;-69
2022/03/18 08:50:22;;;;;;;13.77;9.00;;;;;;;3.40;48.76;97791.27;1667343;85;21500;-68
2022/03/18 08:52:51;;;;;;;13.17;9.60;;;;;;;3.33;48.92;97794.42;1667436;85;21015;-71
2022/03/18 08:55:18;;;;;;;19.40;12.03;;;;;;;3.28;49.23;97795.94;1667535;85;21062;-71
2022/03/18 08:57:45;;;;;;;13.07;7.97;;;;;;;3.27;49.40;97801.08;1683904;85;21137;-70
2022/03/18 09:00:15;;;;;;;13.93;8.37;;;;;;;3.38;49.42;97795.94;1667279;86;21015;-71
2022/03/18 09:02:43;;;;;;;13.83;8.77;;;;;;;3.52;48.73;97797.84;1668303;85;21050;-70
2022/03/18 09:05:11;;;;;;;13.87;7.40;;;;;;;3.67;48.31;97791.98;1670561;86;21563;-69
2022/03/18 09:07:39;;;;;;;14.00;8.70;;;;;;;3.83;49.71;97796.14;1669617;86;21101;-69
2022/03/18 09:10:09;;;;;;;11.33;8.20;;;;;;;3.93;48.44;97799.66;1645552;87;21073;-69
2022/03/18 09:12:35;;;;;;;15.23;7.77;;;;;;;4.25;49.83;97796.17;1657453;86;21031;-69
2022/03/18 09:15:03;;;;;;;19.03;9.57;;;;;;;4.18;46.13;97803.28;1657919;86;21035;-69
2022/03/18 09:17:30;;;;;;;33.30;18.30;;;;;;;4.06;47.22;97803.67;1657354;86;21049;-69
2022/03/18 09:19:57;;;;;;;16.73;9.43;;;;;;;3.79;46.30;97802.97;1674137;86;21049;-68
2022/03/18 09:22:23;;;;;;;21.77;11.30;;;;;;;4.02;47.70;97797.41;1656591;86;21077;-71
2022/03/18 09:24:50;;;;;;;16.80;10.23;;;;;;;4.18;48.90;97798.94;1674775;86;21095;-68
2022/03/18 09:27:17;;;;;;;16.87;8.63;;;;;;;4.32;48.76;97798.22;1657607;86;20999;-69
2022/03/18 09:29:44;;;;;;;15.73;10.27;;;;;;;4.36;48.01;97790.99;1658470;86;21054;-69
2022/03/18 09:32:10;;;;;;;16.97;9.07;;;;;;;4.43;48.78;97796.91;1674332;85;21065;-68
2022/03/18 09:34:37;;;;;;;17.47;9.90;;;;;;;4.32;48.42;97797.80;1656972;86;21122;-69
2022/03/18 09:37:04;;;;;;;17.00;11.13;;;;;;;4.51;49.81;97792.91;1656812;86;21050;-70
2022/03/18 09:39:34;;;;;;;18.53;10.93;;;;;;;4.76;50.97;97789.94;1674542;86;21671;-70
2022/03/18 09:42:03;;;;;;;18.33;10.57;;;;;;;4.94;49.79;97789.80;1635330;86;21031;-72
2022/03/18 09:44:39;;;;;;;17.47;10.93;;;;;;;4.84;47.34;97790.23;1674936;86;21073;-72
2022/03/18 09:47:08;;;;;;;16.93;9.37;;;;;;;4.95;46.79;97787.64;1657338;86;21091;-67
2022/03/18 09:49:36;;;;;;;16.43;11.13;;;;;;;4.86;47.12;97784.66;1657251;86;21114;-70
2022/03/18 09:52:04;;;;;;;20.00;12.57;;;;;;;5.17;49.40;97777.16;1673819;85;21072;-71
2022/03/18 09:54:34;;;;;;;17.27;10.97;;;;;;;5.38;47.93;97772.23;1656472;86;21571;-73
2022/03/18 09:57:02;;;;;;;17.37;11.13;;;;;;;5.43;46.15;97772.87;1674429;85;21123;-68
2022/03/18 09:59:29;;;;;;;19.27;11.83;;;;;;;5.50;46.91;97775.30;1656974;86;21098;-72
2022/03/18 10:02:29;;;;;;;19.00;11.73;;;;;;;5.57;46.26;97760.72;1675079;86;21096;-69
2022/03/18 10:04:58;;;;;;;16.23;11.17;;;;;;;5.73;45.44;97766.06;1671208;86;21065;-68
2022/03/18 10:07:29;;;;;;;21.83;14.13;;;;;;;5.87;48.47;97760.86;1679908;85;21088;-68
2022/03/18 10:10:16;;;;;;;19.47;13.00;;;;;;;6.14;48.58;97764.00;1702832;84;21341;-68
2022/03/18 10:12:47;;;;;;;22.33;13.17;;;;;;;6.11;48.37;97766.10;1703368;84;21029;-68
2022/03/18 10:15:22;;;;;;;21.10;13.33;;;;;;;6.24;48.70;97760.84;1703713;84;21056;-68
2022/03/18 10:17:54;;;;;;;16.37;11.03;;;;;;;6.40;48.64;97767.08;1703790;84;21484;-69
2022/03/18 10:20:38;;;;;;;20.27;12.15;;;;;;;6.37;44.81;97768.69;1703362;84;21044;-69
2022/03/18 10:23:21;;;;;;;18.82;11.93;;;;;;;6.31;47.87;97767.19;1702286;84;21668;-68
2022/03/18 10:25:56;;;;;;;17.00;10.13;;;;;;;6.49;46.10;97762.11;1703408;84;21014;-69
2022/03/18 10:28:43;;;;;;;15.67;10.17;;;;;;;6.77;45.27;97754.22;1697161;84;21084;-69
2022/03/18 10:31:20;;;;;;;17.97;11.07;;;;;;;6.85;43.66;97757.53;1697085;84;21498;-68
2022/03/18 10:37:07;;;;;;;14.23;9.63;;;;;;;6.99;46.74;97751.84;1697483;84;21004;-68
2022/03/18 10:39:43;;;;;;;15.43;10.33;;;;;;;7.22;44.48;97749.88;1697797;84;21076;-68
2022/03/18 10:42:14;;;;;;;17.37;10.57;;;;;;;7.40;42.75;97756.97;1698609;84;21028;-68
2022/03/18 10:44:53;;;;;;;14.73;10.40;;;;;;;7.41;42.67;97749.58;1703334;84;21052;-68
2022/03/18 10:47:40;;;;;;;12.63;9.17;;;;;;;7.56;44.13;97754.38;1703828;84;21015;-68
2022/03/18 10:50:29;;;;;;;15.50;10.20;;;;;;;7.57;42.08;97750.88;1703570;84;21028;-68
2022/03/18 10:53:01;;;;;;;15.83;9.33;;;;;;;7.49;41.49;97755.05;1703184;84;21043;-69
2022/03/18 10:55:41;;;;;;;17.57;11.10;;;;;;;7.55;40.35;97749.95;1702736;84;21510;-69
2022/03/18 10:58:19;;;;;;;18.87;11.63;;;;;;;7.64;38.23;97754.16;1702564;84;21087;-69
2022/03/18 11:00:50;;;;;;;20.90;11.13;;;;;;;7.20;38.27;97747.63;1703158;84;21569;-69
2022/03/18 11:03:18;;;;;;;16.83;10.80;;;;;;;7.33;39.70;97741.48;1701716;84;21086;-69
2022/03/18 11:05:51;;;;;;;17.63;11.60;;;;;;;7.83;40.98;97739.76;1680703;85;21093;-68
2022/03/18 11:08:22;;;;;;;14.28;9.25;;;;;;;8.40;38.92;97730.72;1681047;85;21021;-68
2022/03/18 11:14:00;;;;;;;18.17;11.40;;;;;;;9.04;35.13;97720.77;1622493;88;21027;-66
2022/03/18 11:16:33;;;;;;;15.63;9.07;;;;;;;9.33;36.50;97724.45;1622490;88;21020;-66
2022/03/18 11:19:01;;;;;;;17.83;9.27;;;;;;;9.73;32.20;97719.09;1653917;85;21468;-65
2022/03/18 11:21:39;;;;;;;12.20;7.95;;;;;;;10.24;34.82;97716.47;1681090;85;21039;-66
2022/03/18 11:24:09;;;;;;;10.55;8.33;;;;;;;10.77;34.95;97712.05;1696484;85;21128;-66
2022/03/18 11:26:37;;;;;;;10.65;7.40;;;;;;;11.25;33.24;97720.64;1696666;85;21486;-66
2022/03/18 11:29:13;;;;;;;11.53;7.70;;;;;;;11.49;33.04;97710.81;1696606;85;21083;-66
2022/03/18 11:31:41;;;;;;;12.90;8.00;;;;;;;11.84;31.57;97712.93;1696557;85;21009;-66
2022/03/18 11:34:17;;;;;;;11.50;7.55;;;;;;;11.82;29.68;97709.41;1696613;85;21040;-67
2022/03/18 11:37:10;;;;;;;10.13;7.37;;;;;;;12.31;30.23;97708.57;1696742;85;21487;-70
2022/03/18 11:39:38;;;;;;;10.75;8.85;;;;;;;12.32;28.55;97706.36;1696619;85;21513;-68
2022/03/18 11:42:09;;;;;;;31.60;21.50;;;;;;;12.83;29.65;97703.67;1696800;85;21072;-68
2022/03/18 11:44:56;;;;;;;11.53;7.45;;;;;;;13.32;30.27;97697.31;1696531;85;21569;-69
2022/03/18 11:47:31;;;;;;;13.45;7.95;;;;;;;12.93;26.08;97704.17;1696742;85;21012;-69
2022/03/18 11:49:59;;;;;;;13.38;10.03;;;;;;;12.72;25.70;97701.37;1696631;85;21040;-69
2022/03/18 11:52:27;;;;;;;14.03;10.45;;;;;;;13.26;28.20;97703.02;1696767;85;21012;-69
2022/03/18 11:54:58;;;;;;;10.08;7.47;;;;;;;13.69;26.01;97695.25;1696664;85;21471;-69